Time;durP1;ratioP1;P1;durP2;ratioP2;P2;SDS_P1;SDS_P2;PMS_P1;PMS_P2;Temp;Humidity;BMP_temperature;BMP_pressure;BME280_temperature;BME280_humidity;BME280_pressure;Samples;Min_cycle;Max_cycle;Signal;HPM_P1;HPM_P2
2023/10/18 00:01:39;;;;;;;0.40;0.40;;;19.20;65.20;;;;;;5063248;28;20044;-73
2023/10/18 00:04:06;;;;;;;0.38;0.35;;;19.20;65.20;;;;;;5062727;28;20045;-72
2023/10/18 00:06:32;;;;;;;0.45;0.45;;;19.20;65.20;;;;;;5063491;28;20033;-72
2023/10/18 00:08:58;;;;;;;0.47;0.40;;;19.20;65.20;;;;;;5063796;28;20037;-73
2023/10/18 00:11:27;;;;;;;0.50;0.30;;;19.20;65.30;;;;;;5063731;28;20547;-72
2023/10/18 00:13:53;;;;;;;0.50;0.40;;;19.20;65.30;;;;;;5061720;28;20028;-73
2023/10/18 00:16:20;;;;;;;0.35;0.35;;;19.20;65.30;;;;;;5058289;28;20055;-72
2023/10/18 00:18:45;;;;;;;0.55;0.32;;;19.20;65.30;;;;;;5061071;28;20025;-73
2023/10/18 00:21:12;;;;;;;0.40;0.30;;;19.20;65.30;;;;;;5062186;28;20056;-72
2023/10/18 00:23:37;;;;;;;0.35;0.35;;;19.20;65.30;;;;;;5062964;28;20045;-73
2023/10/18 00:26:09;;;;;;;0.43;0.40;;;19.20;65.30;;;;;;5060966;28;20565;-72
2023/10/18 00:28:38;;;;;;;0.52;0.30;;;19.20;65.40;;;;;;5062960;28;20036;-72
2023/10/18 00:31:16;;;;;;;0.30;0.30;;;19.20;65.30;;;;;;5060267;28;20041;-72
2023/10/18 00:33:43;;;;;;;0.65;0.40;;;19.20;65.30;;;;;;5062138;28;20037;-72
2023/10/18 00:36:10;;;;;;;0.38;0.38;;;19.20;65.50;;;;;;5041378;28;20486;-72
2023/10/18 00:38:38;;;;;;;0.43;0.40;;;19.20;65.40;;;;;;5064864;28;20506;-72
2023/10/18 00:41:07;;;;;;;0.38;0.38;;;19.20;65.30;;;;;;5063054;28;20048;-72
2023/10/18 00:43:33;;;;;;;0.82;0.30;;;19.20;65.40;;;;;;5065977;28;20044;-73
2023/10/18 00:45:59;;;;;;;0.40;0.40;;;19.20;65.40;;;;;;5064712;28;20062;-72
2023/10/18 00:48:27;;;;;;;0.32;0.32;;;19.20;65.40;;;;;;5049565;28;20032;-73
2023/10/18 00:50:54;;;;;;;0.50;0.50;;;19.20;65.30;;;;;;5062324;28;20510;-72
2023/10/18 00:53:21;;;;;;;0.65;0.30;;;19.20;65.40;;;;;;5067290;28;20418;-73
2023/10/18 00:55:48;;;;;;;0.43;0.30;;;19.20;65.30;;;;;;5064187;28;20056;-72
2023/10/18 00:58:15;;;;;;;1.60;0.47;;;19.20;65.40;;;;;;5066586;28;20075;-73
2023/10/18 01:00:41;;;;;;;0.43;0.43;;;19.20;65.60;;;;;;5066392;28;20036;-73
2023/10/18 01:03:09;;;;;;;0.40;0.40;;;19.20;65.60;;;;;;5084172;28;20041;-72
2023/10/18 01:05:35;;;;;;;0.60;0.30;;;19.20;65.70;;;;;;5065431;28;20070;-72
2023/10/18 01:08:06;;;;;;;0.63;0.63;;;19.20;65.70;;;;;;5064373;28;20059;-73
2023/10/18 01:10:33;;;;;;;0.30;0.30;;;19.20;65.70;;;;;;5063320;28;20434;-73
2023/10/18 01:13:01;;;;;;;0.50;0.50;;;19.20;65.80;;;;;;5067038;28;20048;-72
2023/10/18 01:15:28;;;;;;;0.60;0.40;;;19.30;65.90;;;;;;5062977;28;20147;-73
2023/10/18 01:17:54;;;;;;;0.60;0.50;;;19.20;65.90;;;;;;5067964;28;20036;-72
2023/10/18 01:22:58;;;;;;;0.68;0.43;;;19.20;66.00;;;;;;5055993;28;20466;-72
2023/10/18 01:25:27;;;;;;;0.43;0.40;;;19.20;65.90;;;;;;5060677;28;20055;-73
2023/10/18 01:27:53;;;;;;;0.30;0.30;;;19.20;65.90;;;;;;5062620;28;20048;-72
2023/10/18 01:30:19;;;;;;;0.30;0.30;;;19.20;65.90;;;;;;5063522;28;20407;-72
2023/10/18 01:32:45;;;;;;;0.45;0.35;;;19.20;66.70;;;;;;5066861;28;20058;-72
2023/10/18 01:35:13;;;;;;;0.30;0.30;;;19.20;65.90;;;;;;5062916;28;20445;-72
2023/10/18 01:37:39;;;;;;;0.38;0.38;;;19.20;66.00;;;;;;5063620;28;20049;-72
2023/10/18 01:40:21;;;;;;;1.25;0.40;;;19.30;66.10;;;;;;5065755;28;20052;-72
2023/10/18 01:42:55;;;;;;;0.50;0.30;;;19.20;66.00;;;;;;5064435;28;20126;-72
2023/10/18 01:45:22;;;;;;;0.40;0.40;;;19.20;65.90;;;;;;5065854;28;20514;-73
2023/10/18 01:47:49;;;;;;;0.32;0.32;;;19.20;65.90;;;;;;5066321;28;20045;-73
2023/10/18 01:50:15;;;;;;;0.52;0.40;;;19.20;65.80;;;;;;5065234;28;20040;-72
2023/10/18 01:52:42;;;;;;;0.40;0.40;;;19.30;65.90;;;;;;5064150;28;20045;-73
2023/10/18 01:55:12;;;;;;;0.65;0.60;;;19.20;66.00;;;;;;5061642;28;20056;-72
2023/10/18 01:57:43;;;;;;;0.40;0.40;;;19.30;66.00;;;;;;5065407;28;20084;-72
2023/10/18 02:03:08;;;;;;;0.40;0.40;;;19.20;66.00;;;;;;5035443;28;20045;-72
2023/10/18 02:05:38;;;;;;;0.40;0.40;;;19.20;66.00;;;;;;5094475;28;20056;-72
2023/10/18 02:08:05;;;;;;;0.40;0.40;;;19.20;66.00;;;;;;5063509;28;20037;-72
2023/10/18 02:10:32;;;;;;;0.50;0.40;;;19.20;66.00;;;;;;5064970;28;20060;-73
2023/10/18 02:12:57;;;;;;;0.40;0.40;;;19.20;65.90;;;;;;5064422;28;20082;-72
2023/10/18 02:15:24;;;;;;;0.40;0.40;;;19.20;65.90;;;;;;5065012;28;20100;-72
2023/10/18 02:17:56;;;;;;;0.50;0.47;;;19.30;65.90;;;;;;5063438;28;20037;-73
2023/10/18 02:20:28;;;;;;;0.40;0.40;;;19.20;65.80;;;;;;5064246;28;20041;-73
2023/10/18 02:23:01;;;;;;;0.40;0.40;;;19.20;65.80;;;;;;5063673;28;20070;-72
2023/10/18 02:28:09;;;;;;;0.30;0.30;;;19.20;65.90;;;;;;5060515;28;20036;-73
2023/10/18 02:30:37;;;;;;;0.40;0.40;;;19.20;65.90;;;;;;5063694;28;20124;-73
2023/10/18 02:33:04;;;;;;;0.40;0.30;;;19.20;65.90;;;;;;5093519;28;20549;-73
2023/10/18 02:35:31;;;;;;;0.30;0.30;;;19.20;65.80;;;;;;5065382;28;20547;-74
2023/10/18 02:37:57;;;;;;;0.30;0.30;;;19.20;65.80;;;;;;5064893;28;20043;-72
2023/10/18 02:40:31;;;;;;;0.40;0.40;;;19.20;65.90;;;;;;5064403;28;20036;-72
2023/10/18 02:42:58;;;;;;;1.13;0.50;;;19.20;65.90;;;;;;5059960;28;20049;-72
2023/10/18 02:45:24;;;;;;;0.38;0.30;;;19.20;66.50;;;;;;5064868;28;20123;-72
2023/10/18 02:47:51;;;;;;;0.32;0.30;;;19.20;66.90;;;;;;5059433;28;20040;-72
2023/10/18 02:50:18;;;;;;;0.40;0.40;;;19.20;67.40;;;;;;5062390;28;20043;-72
2023/10/18 02:52:46;;;;;;;0.40;0.30;;;19.30;67.60;;;;;;5062856;28;20040;-73
2023/10/18 02:55:18;;;;;;;0.30;0.30;;;19.20;67.60;;;;;;5064208;28;20064;-73
2023/10/18 02:57:46;;;;;;;0.50;0.50;;;19.30;67.80;;;;;;5061807;28;20055;-73
2023/10/18 03:00:17;;;;;;;0.60;0.60;;;19.20;67.60;;;;;;5061179;28;20044;-73
2023/10/18 03:02:44;;;;;;;0.30;0.30;;;19.30;67.70;;;;;;5065582;28;20546;-73
2023/10/18 03:05:10;;;;;;;0.30;0.30;;;19.30;67.60;;;;;;5063277;28;20532;-72
2023/10/18 03:07:36;;;;;;;0.28;0.28;;;19.30;67.50;;;;;;5060957;28;20082;-73
2023/10/18 03:10:11;;;;;;;0.40;0.40;;;19.30;67.60;;;;;;5064352;28;20037;-72
2023/10/18 03:12:44;;;;;;;0.28;0.28;;;19.30;67.60;;;;;;5061585;28;20044;-72
2023/10/18 03:15:12;;;;;;;0.47;0.47;;;19.30;67.50;;;;;;5063419;28;20751;-72
2023/10/18 03:17:37;;;;;;;0.30;0.30;;;19.30;67.60;;;;;;5065180;28;20037;-73
2023/10/18 03:20:20;;;;;;;0.40;0.40;;;19.30;67.50;;;;;;5064938;28;20305;-73
2023/10/18 03:22:48;;;;;;;0.47;0.47;;;19.30;67.50;;;;;;5060957;28;20052;-72
2023/10/18 03:25:16;;;;;;;0.40;0.40;;;19.30;67.50;;;;;;5062895;28;20398;-72
2023/10/18 03:27:49;;;;;;;0.63;0.35;;;19.30;67.50;;;;;;5063340;28;20040;-72
2023/10/18 03:30:18;;;;;;;0.30;0.30;;;19.30;67.50;;;;;;5063367;28;20044;-72
2023/10/18 03:32:49;;;;;;;0.40;0.40;;;19.30;67.40;;;;;;5063969;28;20544;-72
2023/10/18 03:35:20;;;;;;;0.32;0.32;;;19.30;67.30;;;;;;5065823;28;20394;-72
2023/10/18 03:37:46;;;;;;;0.40;0.40;;;19.30;67.30;;;;;;5065062;28;20049;-73
2023/10/18 03:40:24;;;;;;;0.73;0.55;;;19.30;67.20;;;;;;5062344;28;20049;-73
2023/10/18 03:42:51;;;;;;;0.35;0.35;;;19.30;67.30;;;;;;5061240;28;20053;-72
2023/10/18 03:45:22;;;;;;;0.20;0.20;;;19.30;67.30;;;;;;5062433;28;20044;-73
2023/10/18 03:48:06;;;;;;;0.40;0.30;;;19.30;67.40;;;;;;5065085;28;20044;-73
2023/10/18 03:50:40;;;;;;;0.40;0.40;;;19.30;67.30;;;;;;5065512;28;20079;-72
2023/10/18 03:53:13;;;;;;;0.30;0.30;;;19.30;67.40;;;;;;5061817;28;20072;-73
2023/10/18 03:55:42;;;;;;;0.20;0.20;;;19.30;67.20;;;;;;5062332;28;20448;-72
2023/10/18 03:58:08;;;;;;;2.72;0.45;;;19.30;67.30;;;;;;5061477;28;20075;-72
2023/10/18 04:00:46;;;;;;;0.40;0.40;;;19.30;67.20;;;;;;5061516;28;20044;-72
2023/10/18 04:03:20;;;;;;;0.45;0.45;;;19.30;67.30;;;;;;5059115;28;20041;-72
2023/10/18 04:05:45;;;;;;;0.30;0.30;;;19.30;67.20;;;;;;5062644;28;20075;-73
2023/10/18 04:08:14;;;;;;;0.30;0.30;;;19.30;67.20;;;;;;5061288;28;20068;-72
2023/10/18 04:10:40;;;;;;;0.20;0.20;;;19.30;67.20;;;;;;5060488;28;20070;-73
2023/10/18 04:13:13;;;;;;;0.75;0.40;;;19.30;67.20;;;;;;5096247;28;20127;-72
2023/10/18 04:15:40;;;;;;;0.43;0.43;;;19.30;67.10;;;;;;5061490;28;20036;-73
2023/10/18 04:20:42;;;;;;;0.30;0.30;;;19.30;67.90;;;;;;5065206;28;20444;-72
2023/10/18 04:23:21;;;;;;;0.30;0.30;;;19.20;67.00;;;;;;5062006;28;20036;-73
2023/10/18 04:26:04;;;;;;;0.40;0.40;;;19.30;67.10;;;;;;5058648;28;20032;-73
2023/10/18 04:28:37;;;;;;;0.35;0.35;;;19.30;67.10;;;;;;5064302;28;20036;-73
2023/10/18 04:31:04;;;;;;;0.77;0.40;;;19.20;67.00;;;;;;5062407;28;20048;-72
2023/10/18 04:33:52;;;;;;;0.20;0.20;;;19.20;67.10;;;;;;5062769;28;20052;-72
2023/10/18 04:36:18;;;;;;;0.20;0.20;;;19.30;67.10;;;;;;5059061;28;20041;-73
2023/10/18 04:38:47;;;;;;;0.40;0.40;;;19.20;67.10;;;;;;5063945;28;20526;-73
2023/10/18 04:41:24;;;;;;;0.30;0.20;;;19.30;67.10;;;;;;5062030;28;20052;-73
2023/10/18 04:44:06;;;;;;;0.40;0.40;;;19.20;67.10;;;;;;5061404;28;20036;-72
2023/10/18 04:46:33;;;;;;;0.30;0.30;;;19.30;67.10;;;;;;5059726;28;20052;-72
2023/10/18 04:51:44;;;;;;;0.20;0.20;;;19.30;67.10;;;;;;5064113;28;20137;-72
2023/10/18 04:56:38;;;;;;;0.38;0.38;;;19.30;67.10;;;;;;5063707;28;20075;-72
2023/10/18 04:59:11;;;;;;;0.55;0.55;;;19.30;67.90;;;;;;5058740;28;20128;-72
2023/10/18 05:04:29;;;;;;;0.28;0.28;;;19.20;67.20;;;;;;5040511;28;20040;-72
2023/10/18 05:06:56;;;;;;;0.30;0.30;;;19.20;67.20;;;;;;5060148;28;20039;-73
2023/10/18 05:09:43;;;;;;;0.40;0.40;;;19.20;67.10;;;;;;5057549;28;20047;-73
2023/10/18 05:17:26;;;;;;;2.90;0.23;;;19.20;66.90;;;;;;4710452;28;10000496;-72
2023/10/18 05:19:55;;;;;;;0.43;0.30;;;19.30;67.10;;;;;;5057893;28;20128;-72
2023/10/18 05:22:24;;;;;;;0.30;0.30;;;19.20;67.10;;;;;;5058733;28;20048;-73
2023/10/18 05:25:11;;;;;;;0.90;0.40;;;19.30;67.20;;;;;;5054781;28;20533;-72
2023/10/18 05:27:45;;;;;;;0.35;0.35;;;19.30;67.30;;;;;;5056573;28;20040;-72
2023/10/18 05:30:26;;;;;;;0.28;0.28;;;19.30;67.40;;;;;;5058537;28;20430;-73
2023/10/18 05:35:45;;;;;;;0.28;0.28;;;19.30;67.40;;;;;;5063401;28;20050;-73
2023/10/18 05:43:06;;;;;;;0.40;0.40;;;19.30;69.00;;;;;;5061778;28;20053;-73
2023/10/18 05:45:33;;;;;;;0.70;0.70;;;19.30;67.80;;;;;;5061859;28;20517;-73
2023/10/18 05:48:12;;;;;;;1.20;1.20;;;19.30;68.40;;;;;;5061732;28;20048;-72
2023/10/18 05:50:38;;;;;;;2.17;1.13;;;19.30;68.90;;;;;;5063955;28;20521;-72
2023/10/18 05:53:18;;;;;;;2.03;0.70;;;19.30;68.70;;;;;;5060872;28;20056;-72
2023/10/18 05:55:53;;;;;;;0.63;0.60;;;19.30;68.90;;;;;;5044130;28;20981;-73
2023/10/18 05:58:25;;;;;;;0.70;0.47;;;19.30;68.70;;;;;;5061636;28;20044;-72
2023/10/18 06:00:55;;;;;;;1.08;0.57;;;19.30;68.70;;;;;;5058631;28;20041;-73
2023/10/18 06:03:27;;;;;;;0.52;0.40;;;19.30;68.80;;;;;;5060973;28;20041;-74
2023/10/18 06:05:57;;;;;;;0.80;0.50;;;19.30;68.80;;;;;;5057737;28;20045;-74
2023/10/18 06:08:23;;;;;;;0.40;0.40;;;19.30;68.70;;;;;;5083984;28;20041;-74
2023/10/18 06:10:55;;;;;;;1.58;0.40;;;19.30;68.60;;;;;;5057145;28;20048;-74
2023/10/18 06:13:21;;;;;;;0.95;0.60;;;19.30;68.60;;;;;;5041419;28;20059;-74
2023/10/18 06:15:50;;;;;;;0.40;0.40;;;19.30;68.60;;;;;;5058087;28;20740;-73
2023/10/18 06:18:17;;;;;;;0.43;0.38;;;19.30;68.60;;;;;;5056287;28;20036;-73
2023/10/18 06:20:44;;;;;;;0.40;0.40;;;19.30;68.50;;;;;;5062462;28;20956;-74
2023/10/18 06:23:36;;;;;;;0.65;0.57;;;19.30;68.30;;;;;;5060418;28;20491;-75
2023/10/18 06:25:57;;;;;;;0.57;0.57;;;19.30;68.40;;;;;;5058022;28;20089;-75
2023/10/18 06:28:26;;;;;;;0.45;0.45;;;19.30;68.30;;;;;;5060961;28;20024;-74
2023/10/18 06:30:52;;;;;;;0.57;0.50;;;19.30;68.10;;;;;;5059113;28;20044;-75
2023/10/18 06:33:26;;;;;;;0.45;0.45;;;19.30;68.00;;;;;;5060328;28;20119;-75
2023/10/18 06:35:52;;;;;;;0.40;0.30;;;19.30;67.90;;;;;;5064878;28;20028;-75
2023/10/18 06:38:24;;;;;;;0.55;0.55;;;19.30;67.70;;;;;;5060006;28;20460;-75
2023/10/18 06:40:53;;;;;;;0.40;0.40;;;19.30;67.80;;;;;;5060668;28;20040;-74
2023/10/18 06:43:20;;;;;;;0.40;0.40;;;19.30;67.90;;;;;;5061536;28;20107;-74
2023/10/18 06:45:48;;;;;;;0.75;0.22;;;19.30;68.00;;;;;;5062257;28;20047;-74
2023/10/18 06:48:15;;;;;;;1.67;0.45;;;19.30;68.10;;;;;;5091551;28;20499;-73
2023/10/18 06:50:41;;;;;;;1.23;0.73;;;19.30;70.00;;;;;;5046794;28;20028;-73
2023/10/18 06:53:06;;;;;;;1.75;0.50;;;19.30;68.60;;;;;;5063456;28;20039;-74
2023/10/18 06:58:15;;;;;;;2.33;0.50;;;19.30;68.70;;;;;;5045636;28;20036;-74
2023/10/18 07:00:46;;;;;;;0.90;0.60;;;19.30;68.80;;;;;;5065031;28;20059;-73
2023/10/18 07:03:17;;;;;;;1.85;0.60;;;19.30;69.00;;;;;;5060793;28;20057;-74
2023/10/18 07:05:49;;;;;;;4.38;0.50;;;19.30;69.00;;;;;;5063709;28;20041;-73
2023/10/18 07:08:29;;;;;;;1.00;0.60;;;19.30;69.00;;;;;;5063861;28;20494;-74
2023/10/18 07:10:55;;;;;;;0.80;0.47;;;19.30;69.10;;;;;;5062658;28;20036;-74
2023/10/18 07:13:33;;;;;;;0.40;0.32;;;19.30;69.00;;;;;;5054695;28;20085;-73
2023/10/18 07:16:03;;;;;;;2.92;0.80;;;19.30;68.90;;;;;;5074966;28;20097;-73
2023/10/18 07:18:33;;;;;;;0.43;0.30;;;19.30;68.90;;;;;;5062031;28;20402;-73
2023/10/18 07:21:05;;;;;;;0.52;0.45;;;19.30;68.80;;;;;;5061347;28;20039;-74
2023/10/18 07:23:36;;;;;;;0.95;0.43;;;19.30;68.90;;;;;;5062621;28;20417;-73
2023/10/18 07:26:02;;;;;;;0.30;0.30;;;19.30;68.90;;;;;;5062096;28;20060;-74
2023/10/18 07:28:29;;;;;;;1.35;0.50;;;19.30;69.00;;;;;;5061491;28;20525;-73
2023/10/18 07:30:55;;;;;;;2.00;0.65;;;19.30;68.90;;;;;;5061589;28;20048;-74
2023/10/18 07:33:23;;;;;;;0.30;0.30;;;19.30;68.90;;;;;;5064640;28;20041;-73
2023/10/18 07:35:49;;;;;;;0.50;0.50;;;19.30;69.00;;;;;;5096129;28;20033;-74
2023/10/18 07:38:25;;;;;;;0.40;0.40;;;19.30;69.00;;;;;;5097508;28;20409;-73
2023/10/18 07:40:59;;;;;;;0.35;0.30;;;19.30;68.90;;;;;;5064000;28;20032;-74
2023/10/18 07:43:25;;;;;;;0.88;0.35;;;19.30;68.90;;;;;;5065074;28;20127;-73
2023/10/18 07:45:55;;;;;;;0.43;0.40;;;19.30;68.80;;;;;;5064748;28;20502;-75
2023/10/18 07:48:20;;;;;;;0.50;0.50;;;19.30;68.80;;;;;;5060825;28;20041;-74
2023/10/18 07:50:54;;;;;;;0.50;0.40;;;19.30;69.60;;;;;;5064913;28;20482;-73
2023/10/18 07:53:22;;;;;;;0.60;0.40;;;19.30;68.80;;;;;;5056946;28;20068;-74
2023/10/18 07:55:56;;;;;;;0.32;0.30;;;19.30;68.70;;;;;;5059090;28;20028;-74
2023/10/18 07:58:25;;;;;;;0.35;0.35;;;19.30;68.70;;;;;;5063900;28;20028;-74
2023/10/18 08:03:27;;;;;;;0.80;0.50;;;19.30;68.70;;;;;;5061378;28;20036;-73
2023/10/18 08:05:57;;;;;;;0.40;0.40;;;19.30;68.60;;;;;;5062059;28;20047;-74
2023/10/18 08:08:25;;;;;;;2.90;0.30;;;19.30;68.70;;;;;;5063159;28;20036;-74
2023/10/18 08:10:54;;;;;;;0.40;0.40;;;19.30;68.60;;;;;;5059663;28;20048;-74
2023/10/18 08:13:27;;;;;;;0.60;0.60;;;19.30;68.80;;;;;;5064133;28;20036;-74
2023/10/18 08:15:54;;;;;;;0.52;0.30;;;19.30;68.90;;;;;;5090401;28;20090;-74
2023/10/18 08:18:21;;;;;;;0.40;0.40;;;19.20;68.80;;;;;;5061548;28;20053;-74
2023/10/18 08:25:52;;;;;;;0.30;0.30;;;19.30;68.90;;;;;;5061719;28;20387;-74
2023/10/18 08:28:20;;;;;;;0.77;0.47;;;19.30;68.90;;;;;;5062120;28;20558;-74
2023/10/18 08:33:14;;;;;;;0.88;0.30;;;19.20;68.80;;;;;;5064329;28;20040;-74
2023/10/18 08:35:40;;;;;;;0.63;0.30;;;19.20;68.80;;;;;;5068023;28;20098;-74
2023/10/18 08:38:05;;;;;;;0.40;0.40;;;19.30;69.00;;;;;;5062758;28;20040;-74
2023/10/18 08:43:29;;;;;;;0.40;0.40;;;19.30;68.70;;;;;;5059796;28;20044;-74
2023/10/18 08:45:55;;;;;;;0.63;0.63;;;19.30;68.80;;;;;;5058816;28;20419;-74
2023/10/18 08:48:38;;;;;;;0.95;0.50;;;19.20;68.80;;;;;;5093802;28;20049;-74
2023/10/18 08:51:03;;;;;;;0.50;0.35;;;19.20;69.60;;;;;;5091046;28;20044;-74
2023/10/18 08:53:31;;;;;;;0.20;0.20;;;19.20;68.80;;;;;;5062753;28;20098;-74
2023/10/18 08:55:59;;;;;;;0.40;0.35;;;19.30;68.90;;;;;;5030409;28;20063;-74
2023/10/18 08:58:28;;;;;;;0.50;0.50;;;19.30;68.90;;;;;;5060644;28;20046;-74
2023/10/18 09:03:27;;;;;;;0.30;0.30;;;19.30;68.90;;;;;;5092593;28;20108;-74
2023/10/18 09:06:04;;;;;;;0.80;0.50;;;19.20;68.80;;;;;;5068369;28;20608;-75
2023/10/18 09:08:36;;;;;;;1.08;0.35;;;19.20;68.80;;;;;;5066825;28;20191;-73
2023/10/18 09:11:04;;;;;;;0.40;0.40;;;19.20;69.00;;;;;;5066977;28;20036;-74
2023/10/18 09:13:33;;;;;;;0.70;0.50;;;19.20;69.00;;;;;;5065634;28;20040;-74
2023/10/18 09:16:01;;;;;;;0.45;0.40;;;19.20;68.90;;;;;;5047534;28;20402;-74
2023/10/18 09:18:30;;;;;;;0.88;0.50;;;19.20;69.10;;;;;;5053425;28;20043;-74
2023/10/18 09:21:02;;;;;;;0.47;0.40;;;19.30;69.30;;;;;;5094135;28;20409;-74
2023/10/18 09:23:30;;;;;;;0.65;0.52;;;19.20;69.40;;;;;;5068150;28;20714;-74
2023/10/18 09:26:10;;;;;;;0.65;0.65;;;19.30;69.10;;;;;;5065400;28;20032;-74
2023/10/18 09:28:37;;;;;;;0.50;0.50;;;19.30;69.10;;;;;;5060951;28;20032;-74
2023/10/18 09:31:09;;;;;;;0.40;0.40;;;19.20;69.20;;;;;;5065905;28;20047;-74
2023/10/18 09:33:36;;;;;;;0.88;0.55;;;19.20;69.00;;;;;;5064173;28;20362;-74
2023/10/18 09:36:02;;;;;;;0.40;0.40;;;19.30;69.00;;;;;;5064327;28;20040;-74
2023/10/18 09:38:41;;;;;;;0.30;0.30;;;19.30;69.00;;;;;;5073153;28;20047;-74
2023/10/18 09:41:07;;;;;;;0.90;0.55;;;19.30;68.90;;;;;;5063546;28;20041;-74
2023/10/18 09:43:33;;;;;;;0.38;0.30;;;19.30;68.90;;;;;;5030972;28;20036;-74
2023/10/18 09:45:59;;;;;;;1.25;0.40;;;19.30;68.90;;;;;;5063963;28;20540;-74
2023/10/18 09:48:26;;;;;;;0.30;0.30;;;19.30;69.70;;;;;;5064928;28;20045;-74
2023/10/18 09:50:53;;;;;;;0.50;0.50;;;19.30;68.90;;;;;;5066807;28;20120;-74
2023/10/18 09:53:22;;;;;;;0.55;0.55;;;19.30;68.90;;;;;;5065342;28;20048;-74
2023/10/18 09:55:47;;;;;;;0.60;0.30;;;19.30;68.90;;;;;;5062713;28;20123;-74
2023/10/18 09:58:18;;;;;;;0.32;0.32;;;19.30;69.00;;;;;;5047428;28;20186;-74
2023/10/18 10:00:47;;;;;;;0.32;0.32;;;19.30;68.90;;;;;;5062297;28;20033;-74
2023/10/18 10:03:16;;;;;;;0.52;0.40;;;19.30;68.90;;;;;;5064537;28;20053;-74
2023/10/18 10:05:43;;;;;;;0.57;0.30;;;19.30;68.80;;;;;;5052027;28;20065;-74
2023/10/18 10:08:09;;;;;;;0.40;0.40;;;19.30;69.00;;;;;;5063787;28;20124;-74
2023/10/18 10:10:44;;;;;;;0.30;0.30;;;19.30;68.80;;;;;;5047712;28;20057;-74
2023/10/18 10:13:19;;;;;;;0.40;0.40;;;19.30;68.90;;;;;;5064788;28;20121;-74
2023/10/18 10:15:55;;;;;;;0.40;0.40;;;19.30;69.00;;;;;;5064775;28;20414;-74
2023/10/18 10:18:28;;;;;;;0.28;0.28;;;19.30;69.00;;;;;;5063174;28;20044;-74
2023/10/18 10:20:56;;;;;;;0.30;0.30;;;19.30;69.00;;;;;;5066442;28;20045;-74
2023/10/18 10:23:22;;;;;;;0.40;0.40;;;19.30;69.00;;;;;;5065800;28;20047;-74
2023/10/18 10:26:11;;;;;;;0.25;0.25;;;19.30;69.10;;;;;;5065142;28;20029;-74
2023/10/18 10:31:56;;;;;;;0.43;0.43;;;19.30;69.00;;;;;;5063701;28;20033;-74
2023/10/18 10:34:32;;;;;;;0.40;0.25;;;19.20;68.90;;;;;;5055994;28;20132;-74
2023/10/18 10:37:05;;;;;;;0.63;0.47;;;19.30;69.00;;;;;;5063400;28;20107;-74
2023/10/18 10:39:31;;;;;;;0.40;0.30;;;19.30;69.00;;;;;;5058016;28;20029;-74
2023/10/18 10:42:08;;;;;;;0.30;0.30;;;19.30;69.00;;;;;;5080864;28;20048;-74
2023/10/18 10:44:54;;;;;;;0.20;0.20;;;19.30;69.00;;;;;;4710145;28;9999739;-74
2023/10/18 10:47:30;;;;;;;0.40;0.40;;;19.30;69.40;;;;;;5061078;28;20036;-74
2023/10/18 10:50:00;;;;;;;0.20;0.20;;;19.30;69.50;;;;;;5044714;28;20037;-74
2023/10/18 10:52:29;;;;;;;0.40;0.40;;;19.30;70.50;;;;;;5058406;28;20051;-73
2023/10/18 10:55:17;;;;;;;0.40;0.35;;;19.30;69.70;;;;;;5045334;28;20147;-73
2023/10/18 10:57:45;;;;;;;0.52;0.30;;;19.30;69.70;;;;;;5053781;28;20024;-74
2023/10/18 11:00:37;;;;;;;0.57;0.30;;;19.30;69.70;;;;;;5024631;28;20068;-74
2023/10/18 11:03:24;;;;;;;0.30;0.30;;;19.30;69.70;;;;;;5058267;28;20048;-74
2023/10/18 11:05:53;;;;;;;0.30;0.30;;;19.30;69.40;;;;;;5058474;28;20116;-74
2023/10/18 11:08:19;;;;;;;0.40;0.40;;;19.30;69.40;;;;;;5077375;28;20056;-74
2023/10/18 11:10:45;;;;;;;0.35;0.35;;;19.30;68.90;;;;;;5060212;28;20052;-74
2023/10/18 11:13:13;;;;;;;0.43;0.30;;;19.30;68.80;;;;;;5060334;28;20033;-75
2023/10/18 11:15:42;;;;;;;0.47;0.45;;;19.30;68.80;;;;;;5062660;28;20048;-74
2023/10/18 11:18:20;;;;;;;0.28;0.28;;;19.30;69.00;;;;;;5063192;28;20075;-75
2023/10/18 11:20:57;;;;;;;0.30;0.22;;;19.30;69.00;;;;;;5033814;28;20063;-75
2023/10/18 11:23:26;;;;;;;1.80;0.32;;;19.30;68.90;;;;;;5065263;28;20510;-74
2023/10/18 11:25:56;;;;;;;0.30;0.30;;;19.30;69.00;;;;;;5061821;28;20033;-74
2023/10/18 11:28:31;;;;;;;0.20;0.20;;;19.30;69.20;;;;;;5062209;28;20040;-74
2023/10/18 11:30:57;;;;;;;0.20;0.20;;;19.30;69.10;;;;;;4715501;28;10000850;-74
2023/10/18 11:33:57;;;;;;;0.30;0.30;;;19.30;69.10;;;;;;5056800;28;20112;-74
2023/10/18 11:36:27;;;;;;;0.30;0.30;;;19.30;69.20;;;;;;5057206;28;20124;-74
2023/10/18 11:39:17;;;;;;;0.45;0.45;;;19.30;70.00;;;;;;5058491;28;20055;-74
2023/10/18 11:41:44;;;;;;;0.20;0.20;;;19.30;69.20;;;;;;5088086;28;20049;-73
2023/10/18 11:44:15;;;;;;;0.43;0.30;;;19.30;68.90;;;;;;5057678;28;20044;-74
2023/10/18 11:46:50;;;;;;;0.20;0.20;;;19.30;68.70;;;;;;5057918;28;20045;-74
2023/10/18 11:49:19;;;;;;;0.20;0.20;;;19.30;68.80;;;;;;5059530;28;20037;-74
2023/10/18 11:51:49;;;;;;;2.05;0.40;;;19.40;69.00;;;;;;5062740;28;20111;-74
2023/10/18 11:54:34;;;;;;;0.30;0.30;;;19.30;68.70;;;;;;5061152;28;20406;-74
2023/10/18 11:57:02;;;;;;;0.30;0.30;;;19.30;68.80;;;;;;5062626;28;20024;-74
2023/10/18 11:59:30;;;;;;;0.20;0.20;;;19.30;69.00;;;;;;5065743;28;20446;-74
2023/10/18 12:01:57;;;;;;;0.20;0.20;;;19.30;69.10;;;;;;5061726;28;20052;-81
2023/10/18 12:04:37;;;;;;;0.63;0.30;;;19.30;69.30;;;;;;5043677;28;20506;-81
2023/10/18 12:07:03;;;;;;;0.63;0.28;;;19.30;69.60;;;;;;5062803;28;20048;-81
2023/10/18 12:09:30;;;;;;;0.10;0.10;;;19.30;69.50;;;;;;5063872;28;20112;-81
2023/10/18 12:11:56;;;;;;;0.30;0.28;;;19.40;69.60;;;;;;5064829;28;20037;-81
2023/10/18 12:14:22;;;;;;;0.52;0.40;;;19.30;69.40;;;;;;5064662;28;20032;-81
2023/10/18 12:16:54;;;;;;;1.00;0.30;;;19.30;69.40;;;;;;5061851;28;20425;-81
2023/10/18 12:19:20;;;;;;;0.20;0.20;;;19.30;69.40;;;;;;5044044;28;20071;-81
2023/10/18 12:21:48;;;;;;;0.30;0.30;;;19.30;69.30;;;;;;5042511;28;20574;-81
2023/10/18 12:24:18;;;;;;;0.70;0.15;;;19.30;69.40;;;;;;5045032;28;20041;-81
2023/10/18 12:26:45;;;;;;;0.20;0.20;;;19.30;69.40;;;;;;5064878;28;20056;-81
2023/10/18 12:29:16;;;;;;;0.20;0.20;;;19.30;69.40;;;;;;5059880;28;20041;-80
2023/10/18 12:31:42;;;;;;;0.20;0.20;;;19.30;69.40;;;;;;5064462;28;20106;-81
2023/10/18 12:34:14;;;;;;;0.50;0.30;;;19.30;69.40;;;;;;5063426;28;20085;-80
2023/10/18 12:36:39;;;;;;;0.20;0.20;;;19.40;69.50;;;;;;5059847;28;20139;-81
2023/10/18 12:39:20;;;;;;;0.28;0.20;;;19.30;70.30;;;;;;5031873;28;20159;-81
2023/10/18 12:41:46;;;;;;;0.28;0.28;;;19.30;69.50;;;;;;5093427;28;20174;-81
2023/10/18 12:44:17;;;;;;;0.30;0.30;;;19.30;69.50;;;;;;5066841;28;20098;-80
2023/10/18 12:46:43;;;;;;;0.22;0.22;;;19.30;70.30;;;;;;5063574;28;20502;-82
2023/10/18 12:49:11;;;;;;;0.20;0.20;;;19.30;69.50;;;;;;5064718;28;20913;-81
2023/10/18 12:51:43;;;;;;;0.28;0.28;;;19.30;69.50;;;;;;5065065;28;20059;-81
2023/10/18 12:54:10;;;;;;;0.20;0.20;;;19.30;69.50;;;;;;5067946;28;20036;-81
2023/10/18 12:56:43;;;;;;;0.15;0.15;;;19.30;69.50;;;;;;5069934;28;20514;-81
2023/10/18 13:04:07;;;;;;;0.13;0.13;;;19.30;69.50;;;;;;5065186;28;20048;-81
2023/10/18 13:06:41;;;;;;;0.30;0.13;;;19.30;69.60;;;;;;5066944;28;20151;-81
2023/10/18 13:09:15;;;;;;;0.20;0.20;;;19.30;69.80;;;;;;5051646;28;20100;-81
2023/10/18 13:11:53;;;;;;;0.20;0.20;;;19.30;69.60;;;;;;5067597;28;20132;-81
2023/10/18 13:14:29;;;;;;;0.22;0.22;;;19.30;69.60;;;;;;5067964;28;20593;-81
2023/10/18 13:16:56;;;;;;;0.20;0.20;;;19.30;70.50;;;;;;5063787;28;20114;-81
2023/10/18 13:19:23;;;;;;;0.20;0.20;;;19.30;69.60;;;;;;5065420;28;20064;-81
2023/10/18 13:21:49;;;;;;;0.15;0.15;;;19.30;69.60;;;;;;5064965;28;20048;-81
2023/10/18 13:26:54;;;;;;;0.10;0.10;;;19.30;69.70;;;;;;5063991;28;20123;-81
2023/10/18 13:31:49;;;;;;;0.30;0.30;;;19.30;69.70;;;;;;5064148;28;20579;-81
2023/10/18 13:34:18;;;;;;;0.20;0.20;;;19.30;69.70;;;;;;5065817;28;20048;-81
2023/10/18 13:36:45;;;;;;;0.08;0.00;;;19.30;69.60;;;;;;5065362;28;20037;-81
2023/10/18 13:39:14;;;;;;;0.20;0.10;;;19.30;69.70;;;;;;5066042;28;20028;-81
2023/10/18 13:41:46;;;;;;;0.10;0.10;;;19.40;69.60;;;;;;5067515;28;20048;-81
2023/10/18 13:44:22;;;;;;;0.15;0.15;;;19.30;69.60;;;;;;5063591;28;20048;-81
2023/10/18 13:46:50;;;;;;;0.10;0.10;;;19.30;69.70;;;;;;5065062;28;20056;-81
2023/10/18 13:49:17;;;;;;;0.25;0.17;;;19.30;69.60;;;;;;5057782;28;20056;-81
2023/10/18 13:51:43;;;;;;;0.30;0.15;;;19.30;69.80;;;;;;5062544;28;20514;-81
2023/10/18 13:54:08;;;;;;;0.38;0.20;;;19.30;70.50;;;;;;5049385;28;20051;-82
2023/10/18 13:56:34;;;;;;;0.20;0.10;;;19.40;69.70;;;;;;5065305;28;20433;-82
2023/10/18 13:59:01;;;;;;;0.20;0.20;;;19.30;69.70;;;;;;5046085;28;20072;-81
2023/10/18 14:01:27;;;;;;;0.03;0.03;;;19.30;69.60;;;;;;5064500;28;20071;-82
2023/10/18 14:03:54;;;;;;;0.10;0.10;;;19.30;69.70;;;;;;5064210;28;20522;-81